createdAt,value
2023-04-07T00:00:50.694Z,95185.00
2023-04-07T00:01:51.311Z,95185.00
2023-04-07T00:02:50.809Z,95187.00
2023-04-07T00:03:50.910Z,95183.00
2023-04-07T00:04:50.811Z,95183.00
2023-04-07T00:05:50.755Z,95183.00
2023-04-07T00:06:51.313Z,95185.00
2023-04-07T00:07:56.292Z,95183.00
2023-04-07T00:08:50.743Z,95181.00
2023-04-07T00:09:50.746Z,95181.00
2023-04-07T00:10:50.781Z,95179.00
2023-04-07T00:11:50.741Z,95179.00
2023-04-07T00:12:50.764Z,95179.00
2023-04-07T00:13:50.761Z,95177.00
2023-04-07T00:14:50.745Z,95176.00
2023-04-07T00:15:50.803Z,95176.00
2023-04-07T00:16:50.787Z,95177.00
2023-04-07T00:17:50.795Z,95176.00
2023-04-07T00:18:50.750Z,95176.00
2023-04-07T00:19:50.763Z,95176.00
2023-04-07T00:20:50.759Z,95174.00
2023-04-07T00:21:50.760Z,95177.00
2023-04-07T00:22:50.762Z,95176.00
2023-04-07T00:23:50.765Z,95176.00
2023-04-07T00:24:50.748Z,95172.00
2023-04-07T00:25:50.760Z,95170.00
2023-04-07T00:26:50.777Z,95170.00
2023-04-07T00:27:50.764Z,95166.00
2023-04-07T00:28:50.745Z,95170.00
2023-04-07T00:29:51.303Z,95166.00
2023-04-07T00:30:50.712Z,95164.00
2023-04-07T00:31:50.351Z,95164.00
2023-04-07T00:32:50.763Z,95164.00
2023-04-07T00:33:50.754Z,95160.00
2023-04-07T00:34:50.762Z,95162.00
2023-04-07T00:35:50.785Z,95164.00
2023-04-07T00:36:50.753Z,95158.00
2023-04-07T00:37:50.752Z,95158.00
2023-04-07T00:38:50.758Z,95162.00
2023-04-07T00:39:50.770Z,95160.00
2023-04-07T00:40:50.774Z,95156.00
2023-04-07T00:41:50.768Z,95156.00
2023-04-07T00:42:50.806Z,95156.00
2023-04-07T00:43:50.781Z,95144.00
2023-04-07T00:44:50.767Z,95154.00
2023-04-07T00:45:50.766Z,95144.00
2023-04-07T00:46:50.852Z,95146.00
2023-04-07T00:47:50.867Z,95142.00
2023-04-07T00:48:50.793Z,95142.00
2023-04-07T00:49:50.812Z,95138.00
2023-04-07T00:50:50.845Z,95142.00
2023-04-07T00:51:50.872Z,95140.00
2023-04-07T00:52:50.908Z,95140.00
2023-04-07T00:53:50.936Z,95140.00
2023-04-07T00:54:50.957Z,95138.00
2023-04-07T00:55:50.992Z,95136.00
2023-04-07T00:56:51.036Z,95134.00
2023-04-07T00:57:51.032Z,95138.00
2023-04-07T00:58:51.096Z,95134.00
2023-04-07T00:59:51.098Z,95134.00
2023-04-07T01:00:51.126Z,95134.00
2023-04-07T01:01:51.288Z,95134.00
2023-04-07T01:02:51.380Z,95136.00
2023-04-07T01:03:52.022Z,95132.00
2023-04-07T01:04:51.405Z,95132.00
2023-04-07T01:05:51.274Z,95130.00
2023-04-07T01:06:51.302Z,95130.00
2023-04-07T01:07:52.330Z,95130.00
2023-04-07T01:08:51.361Z,95132.00
2023-04-07T01:09:51.381Z,95130.00
2023-04-07T01:10:51.412Z,95130.00
2023-04-07T01:11:51.436Z,95130.00
2023-04-07T01:12:51.460Z,95128.00
2023-04-07T01:13:51.497Z,95126.00
2023-04-07T01:14:51.538Z,95130.00
2023-04-07T01:15:51.562Z,95128.00
2023-04-07T01:16:53.081Z,95128.00
2023-04-07T01:17:51.610Z,95128.00
2023-04-07T01:18:51.828Z,95128.00
2023-04-07T01:19:51.620Z,95132.00
2023-04-07T01:20:51.541Z,95128.00
2023-04-07T01:21:51.532Z,95130.00
2023-04-07T01:22:51.535Z,95126.00
2023-04-07T01:23:51.530Z,95128.00
2023-04-07T01:24:51.519Z,95126.00
2023-04-07T01:25:51.509Z,95126.00
2023-04-07T01:26:51.506Z,95126.00
2023-04-07T01:27:51.491Z,95126.00
2023-04-07T01:28:51.488Z,95128.00
2023-04-07T01:29:51.480Z,95128.00
2023-04-07T01:30:51.499Z,95132.00
2023-04-07T01:31:51.506Z,95126.00
2023-04-07T01:32:51.488Z,95128.00
2023-04-07T01:33:51.460Z,95130.00
2023-04-07T01:34:51.453Z,95130.00
2023-04-07T01:35:51.441Z,95130.00
2023-04-07T01:36:51.476Z,95130.00
2023-04-07T01:37:51.426Z,95130.00
2023-04-07T01:38:51.425Z,95130.00
2023-04-07T01:39:51.414Z,95128.00
2023-04-07T01:40:51.430Z,95130.00
2023-04-07T01:41:51.469Z,95130.00
2023-04-07T01:42:51.489Z,95130.00
2023-04-07T01:43:51.605Z,95132.00
2023-04-07T01:44:51.555Z,95128.00
2023-04-07T01:45:51.592Z,95128.00
2023-04-07T01:46:51.694Z,95130.00
2023-04-07T01:47:51.652Z,95126.00
2023-04-07T01:48:51.686Z,95128.00
2023-04-07T01:49:51.717Z,95126.00
2023-04-07T01:50:51.733Z,95126.00
2023-04-07T01:51:51.764Z,95126.00
2023-04-07T01:52:51.816Z,95124.00
2023-04-07T01:53:51.850Z,95124.00
2023-04-07T01:54:51.856Z,95119.00
2023-04-07T01:55:51.897Z,95117.00
2023-04-07T01:56:51.916Z,95117.00
2023-04-07T01:57:51.955Z,95113.00
2023-04-07T01:58:51.987Z,95113.00
2023-04-07T01:59:52.003Z,95109.00
2023-04-07T02:00:52.070Z,95109.00
2023-04-07T02:01:52.286Z,95107.00
2023-04-07T02:02:52.314Z,95105.00
2023-04-07T02:03:52.312Z,95105.00
2023-04-07T02:04:52.165Z,95101.00
2023-04-07T02:05:52.193Z,95099.00
2023-04-07T02:06:52.219Z,95099.00
2023-04-07T02:07:52.252Z,95097.00
2023-04-07T02:08:52.269Z,95097.00
2023-04-07T02:09:52.318Z,95097.00
2023-04-07T02:10:52.327Z,95097.00
2023-04-07T02:11:52.361Z,95099.00
2023-04-07T02:12:52.387Z,95101.00
2023-04-07T02:13:52.562Z,95095.00
2023-04-07T02:14:52.444Z,95103.00
2023-04-07T02:15:52.468Z,95103.00
2023-04-07T02:16:52.568Z,95105.00
2023-04-07T02:17:52.545Z,95107.00
2023-04-07T02:18:52.589Z,95105.00
2023-04-07T02:19:52.591Z,95105.00
2023-04-07T02:20:52.619Z,95107.00
2023-04-07T02:21:52.644Z,95107.00
2023-04-07T02:22:52.673Z,95107.00
2023-04-07T02:23:52.707Z,95105.00
2023-04-07T02:24:52.742Z,95107.00
2023-04-07T02:25:52.764Z,95107.00
2023-04-07T02:26:53.359Z,95107.00
2023-04-07T02:27:52.846Z,95103.00
2023-04-07T02:28:52.852Z,95103.00
2023-04-07T02:29:52.873Z,95105.00
2023-04-07T02:30:52.905Z,95105.00
2023-04-07T02:31:52.982Z,95103.00
2023-04-07T02:32:53.008Z,95105.00
2023-04-07T02:33:53.095Z,95105.00
2023-04-07T02:34:53.071Z,95105.00
2023-04-07T02:35:53.095Z,95105.00
2023-04-07T02:36:53.105Z,95105.00
2023-04-07T02:37:53.114Z,95109.00
2023-04-07T02:38:53.134Z,95107.00
2023-04-07T02:39:53.173Z,95101.00
2023-04-07T02:40:53.183Z,95107.00
2023-04-07T02:41:53.210Z,95101.00
2023-04-07T02:42:53.240Z,95099.00
2023-04-07T02:43:53.529Z,95099.00
2023-04-07T02:44:53.289Z,95101.00
2023-04-07T02:45:53.369Z,95099.00
2023-04-07T02:46:53.353Z,95097.00
2023-04-07T02:47:53.452Z,95099.00
2023-04-07T02:48:53.409Z,95101.00
2023-04-07T02:49:53.429Z,95093.00
2023-04-07T02:50:53.494Z,95095.00
2023-04-07T02:51:53.496Z,95093.00
2023-04-07T02:52:53.524Z,95093.00
2023-04-07T02:53:53.878Z,95091.00
2023-04-07T02:54:53.578Z,95089.00
2023-04-07T02:55:53.613Z,95095.00
2023-04-07T02:56:53.653Z,95089.00
2023-04-07T02:57:53.675Z,95093.00
2023-04-07T02:58:53.701Z,95085.00
2023-04-07T02:59:53.720Z,95087.00
2023-04-07T03:00:53.835Z,95087.00
2023-04-07T03:01:53.959Z,95089.00
2023-04-07T03:02:53.976Z,95083.00
2023-04-07T03:03:54.137Z,95085.00
2023-04-07T03:04:53.886Z,95083.00
2023-04-07T03:05:53.918Z,95081.00
2023-04-07T03:06:53.969Z,95083.00
2023-04-07T03:07:53.977Z,95079.00
2023-04-07T03:08:54.003Z,95079.00
2023-04-07T03:09:54.036Z,95077.00
2023-04-07T03:10:54.067Z,95077.00
2023-04-07T03:11:54.106Z,95077.00
2023-04-07T03:12:54.132Z,95076.00
2023-04-07T03:13:54.343Z,95076.00
2023-04-07T03:14:54.204Z,95077.00
2023-04-07T03:15:54.232Z,95076.00
2023-04-07T03:16:54.284Z,95074.00
2023-04-07T03:17:54.361Z,95074.00
2023-04-07T03:18:54.325Z,95074.00
2023-04-07T03:19:54.365Z,95072.00
2023-04-07T03:20:54.393Z,95072.00
2023-04-07T03:21:54.431Z,95072.00
2023-04-07T03:22:54.488Z,95070.00
2023-04-07T03:23:54.641Z,95068.00
2023-04-07T03:24:54.513Z,95068.00
2023-04-07T03:25:54.549Z,95068.00
2023-04-07T03:26:54.577Z,95068.00
2023-04-07T03:27:54.613Z,95070.00
2023-04-07T03:28:54.642Z,95068.00
2023-04-07T03:29:54.673Z,95066.00
2023-04-07T03:30:54.781Z,95066.00
2023-04-07T03:31:54.740Z,95064.00
2023-04-07T03:32:54.795Z,95064.00
2023-04-07T03:33:54.952Z,95062.00
2023-04-07T03:34:54.845Z,95062.00
2023-04-07T03:35:54.967Z,95062.00
2023-04-07T03:36:54.914Z,95060.00
2023-04-07T03:37:54.964Z,95062.00
2023-04-07T03:38:55.000Z,95062.00
2023-04-07T03:39:55.006Z,95062.00
2023-04-07T03:40:55.038Z,95064.00
2023-04-07T03:41:55.147Z,95064.00
2023-04-07T03:42:55.123Z,95062.00
2023-04-07T03:43:55.184Z,95062.00
2023-04-07T03:44:55.182Z,95062.00
2023-04-07T03:45:55.248Z,95062.00
2023-04-07T03:46:55.254Z,95060.00
2023-04-07T03:47:55.308Z,95060.00
2023-04-07T03:48:55.317Z,95060.00
2023-04-07T03:49:55.360Z,95060.00
2023-04-07T03:50:55.384Z,95062.00
2023-04-07T03:51:55.425Z,95060.00
2023-04-07T03:52:55.450Z,95060.00
2023-04-07T03:53:55.483Z,95060.00
2023-04-07T03:54:55.543Z,95060.00
2023-04-07T03:55:55.549Z,95060.00
2023-04-07T03:56:55.597Z,95060.00
2023-04-07T03:57:55.613Z,95062.00
2023-04-07T03:58:55.644Z,95060.00
2023-04-07T03:59:55.688Z,95060.00
2023-04-07T04:00:55.722Z,95060.00
2023-04-07T04:01:55.843Z,95058.00
2023-04-07T04:02:56.262Z,95062.00
2023-04-07T04:03:56.541Z,95062.00
2023-04-07T04:04:56.225Z,95060.00
2023-04-07T04:05:56.206Z,95064.00
2023-04-07T04:06:56.211Z,95064.00
2023-04-07T04:07:56.186Z,95064.00
2023-04-07T04:08:56.181Z,95062.00
2023-04-07T04:09:56.181Z,95064.00
2023-04-07T04:10:56.230Z,95060.00
2023-04-07T04:11:56.194Z,95062.00
2023-04-07T04:12:56.183Z,95064.00
2023-04-07T04:13:56.227Z,95060.00
2023-04-07T04:14:56.197Z,95060.00
2023-04-07T04:15:56.220Z,95060.00
2023-04-07T04:16:56.239Z,95062.00
2023-04-07T04:17:57.157Z,95058.00
2023-04-07T04:18:56.298Z,95060.00
2023-04-07T04:19:56.342Z,95056.00
2023-04-07T04:20:56.375Z,95058.00
2023-04-07T04:21:56.400Z,95054.00
2023-04-07T04:22:56.431Z,95056.00
2023-04-07T04:23:56.459Z,95054.00
2023-04-07T04:24:56.487Z,95056.00
2023-04-07T04:25:56.543Z,95054.00
2023-04-07T04:26:56.568Z,95052.00
2023-04-07T04:27:56.570Z,95052.00
2023-04-07T04:28:56.605Z,95050.00
2023-04-07T04:29:56.685Z,95052.00
2023-04-07T04:30:56.685Z,95050.00
2023-04-07T04:31:56.716Z,95050.00
2023-04-07T04:32:57.186Z,95052.00
2023-04-07T04:33:57.126Z,95048.00
2023-04-07T04:34:57.142Z,95048.00
2023-04-07T04:35:57.138Z,95048.00
2023-04-07T04:36:57.140Z,95048.00
2023-04-07T04:37:57.130Z,95048.00
2023-04-07T04:38:57.139Z,95050.00
2023-04-07T04:39:57.123Z,95050.00
2023-04-07T04:40:57.136Z,95048.00
2023-04-07T04:41:57.204Z,95050.00
2023-04-07T04:42:56.212Z,95048.00
2023-04-07T04:43:57.118Z,95048.00
2023-04-07T04:44:57.214Z,95048.00
2023-04-07T04:45:57.156Z,95048.00
2023-04-07T04:46:57.195Z,95048.00
2023-04-07T04:47:57.217Z,95048.00
2023-04-07T04:48:57.243Z,95048.00
2023-04-07T04:49:57.275Z,95048.00
2023-04-07T04:50:57.304Z,95050.00
2023-04-07T04:51:57.334Z,95052.00
2023-04-07T04:52:57.361Z,95052.00
2023-04-07T04:53:57.386Z,95050.00
2023-04-07T04:54:57.422Z,95050.00
2023-04-07T04:55:57.462Z,95052.00
2023-04-07T04:56:57.482Z,95052.00
2023-04-07T04:57:57.523Z,95052.00
2023-04-07T04:58:57.555Z,95050.00
2023-04-07T04:59:57.585Z,95052.00
2023-04-07T05:00:57.627Z,95052.00
2023-04-07T05:01:57.719Z,95052.00
2023-04-07T05:02:58.039Z,95052.00
2023-04-07T05:03:58.141Z,95050.00
2023-04-07T05:04:57.791Z,95050.00
2023-04-07T05:05:57.711Z,95048.00
2023-04-07T05:06:57.760Z,95050.00
2023-04-07T05:07:57.771Z,95050.00
2023-04-07T05:08:57.806Z,95050.00
2023-04-07T05:09:57.829Z,95048.00
2023-04-07T05:10:57.864Z,95050.00
2023-04-07T05:11:57.907Z,95048.00
2023-04-07T05:12:57.923Z,95048.00
2023-04-07T05:13:57.953Z,95046.00
2023-04-07T05:14:58.005Z,95046.00
2023-04-07T05:15:58.020Z,95046.00
2023-04-07T05:16:58.060Z,95044.00
2023-04-07T05:17:58.123Z,95042.00
2023-04-07T05:18:58.115Z,95042.00
2023-04-07T05:19:58.930Z,95042.00
2023-04-07T05:20:58.178Z,95042.00
2023-04-07T05:21:58.204Z,95040.00
2023-04-07T05:22:58.237Z,95040.00
2023-04-07T05:23:58.280Z,95038.00
2023-04-07T05:24:58.308Z,95036.00
2023-04-07T05:25:58.350Z,95040.00
2023-04-07T05:26:58.388Z,95038.00
2023-04-07T05:27:58.422Z,95038.00
2023-04-07T05:28:58.456Z,95038.00
2023-04-07T05:29:58.500Z,95038.00
2023-04-07T05:30:58.569Z,95038.00
2023-04-07T05:31:58.611Z,95040.00
2023-04-07T05:32:58.640Z,95040.00
2023-04-07T05:33:58.638Z,95038.00
2023-04-07T05:34:58.663Z,95038.00
2023-04-07T05:35:58.870Z,95042.00
2023-04-07T05:36:58.732Z,95038.00
2023-04-07T05:37:58.769Z,95038.00
2023-04-07T05:38:58.808Z,95040.00
2023-04-07T05:39:58.842Z,95040.00
2023-04-07T05:40:58.897Z,95038.00
2023-04-07T05:41:58.914Z,95038.00
2023-04-07T05:42:58.954Z,95036.00
2023-04-07T05:43:58.978Z,95038.00
2023-04-07T05:44:59.009Z,95036.00
2023-04-07T05:45:59.052Z,95036.00
2023-04-07T05:46:59.240Z,95036.00
2023-04-07T05:47:59.129Z,95034.00
2023-04-07T05:49:00.765Z,95036.00
2023-04-07T05:49:59.151Z,95036.00
2023-04-07T05:50:59.128Z,95038.00
2023-04-07T05:51:59.118Z,95036.00
2023-04-07T05:52:59.105Z,95038.00
2023-04-07T05:53:59.098Z,95040.00
2023-04-07T05:54:59.097Z,95038.00
2023-04-07T05:55:59.087Z,95040.00
2023-04-07T05:56:59.069Z,95036.00
2023-04-07T05:57:59.068Z,95038.00
2023-04-07T05:58:59.059Z,95036.00
2023-04-07T05:59:59.048Z,95036.00
2023-04-07T06:00:59.051Z,95036.00
2023-04-07T06:01:59.106Z,95038.00
2023-04-07T06:02:59.244Z,95038.00
2023-04-07T06:03:59.106Z,95038.00
2023-04-07T06:04:59.031Z,95040.00
2023-04-07T06:05:59.013Z,95040.00
2023-04-07T06:06:59.002Z,95040.00
2023-04-07T06:07:58.992Z,95042.00
2023-04-07T06:08:59.000Z,95040.00
2023-04-07T06:09:58.986Z,95040.00
2023-04-07T06:10:58.980Z,95038.00
2023-04-07T06:11:58.980Z,95038.00
2023-04-07T06:12:58.958Z,95038.00
2023-04-07T06:13:58.950Z,95036.00
2023-04-07T06:14:58.946Z,95038.00
2023-04-07T06:15:58.952Z,95040.00
2023-04-07T06:16:59.035Z,95040.00
2023-04-07T06:17:58.968Z,95042.00
2023-04-07T06:18:58.951Z,95042.00
2023-04-07T06:19:58.920Z,95042.00
2023-04-07T06:20:58.905Z,95042.00
2023-04-07T06:21:58.894Z,95040.00
2023-04-07T06:22:58.884Z,95040.00
2023-04-07T06:23:58.887Z,95040.00
2023-04-07T06:24:58.875Z,95040.00
2023-04-07T06:25:58.887Z,95042.00
2023-04-07T06:26:58.849Z,95042.00
2023-04-07T06:27:58.869Z,95042.00
2023-04-07T06:28:58.856Z,95044.00
2023-04-07T06:29:58.909Z,95044.00
2023-04-07T06:30:59.660Z,95044.00
2023-04-07T06:31:58.952Z,95044.00
2023-04-07T06:32:59.002Z,95044.00
2023-04-07T06:33:59.019Z,95044.00
2023-04-07T06:34:59.085Z,95042.00
2023-04-07T06:35:59.083Z,95040.00
2023-04-07T06:36:59.545Z,95040.00
2023-04-07T06:37:59.148Z,95038.00
2023-04-07T06:38:59.184Z,95040.00
2023-04-07T06:39:59.207Z,95042.00
2023-04-07T06:40:59.229Z,95038.00
2023-04-07T06:41:59.267Z,95042.00
2023-04-07T06:42:59.293Z,95040.00
2023-04-07T06:43:59.320Z,95042.00
2023-04-07T06:44:59.346Z,95042.00
2023-04-07T06:45:59.404Z,95040.00
2023-04-07T06:46:59.448Z,95040.00
2023-04-07T06:47:59.504Z,95040.00
2023-04-07T06:48:59.465Z,95042.00
2023-04-07T06:49:59.522Z,95042.00
2023-04-07T06:50:59.550Z,95042.00
2023-04-07T06:51:59.567Z,95044.00
2023-04-07T06:52:59.596Z,95044.00
2023-04-07T06:53:59.626Z,95046.00
2023-04-07T06:54:59.669Z,95044.00
2023-04-07T06:55:59.693Z,95044.00
2023-04-07T06:56:59.723Z,95044.00
2023-04-07T06:57:59.755Z,95040.00
2023-04-07T06:58:59.790Z,95044.00
2023-04-07T06:59:59.817Z,95042.00
2023-04-07T07:00:59.879Z,95044.00
2023-04-07T07:02:00.161Z,95042.00
2023-04-07T07:03:00.037Z,95044.00
2023-04-07T07:04:00.021Z,95040.00
2023-04-07T07:04:59.976Z,95042.00
2023-04-07T07:06:00.012Z,95046.00
2023-04-07T07:07:00.058Z,95042.00
2023-04-07T07:08:00.070Z,95046.00
2023-04-07T07:09:00.123Z,95044.00
2023-04-07T07:10:00.171Z,95046.00
2023-04-07T07:11:00.160Z,95046.00
2023-04-07T07:12:00.567Z,95048.00
2023-04-07T07:13:00.229Z,95046.00
2023-04-07T07:14:00.245Z,95048.00
2023-04-07T07:15:00.275Z,95046.00
2023-04-07T07:16:00.338Z,95046.00
2023-04-07T07:17:00.348Z,95046.00
2023-04-07T07:18:00.451Z,95046.00
2023-04-07T07:19:00.396Z,95044.00
2023-04-07T07:20:00.443Z,95048.00
2023-04-07T07:21:00.464Z,95042.00
2023-04-07T07:22:00.489Z,95044.00
2023-04-07T07:23:00.530Z,95042.00
2023-04-07T07:24:00.544Z,95040.00
2023-04-07T07:25:00.578Z,95040.00
2023-04-07T07:26:00.590Z,95040.00
2023-04-07T07:27:00.619Z,95038.00
2023-04-07T07:28:00.645Z,95040.00
2023-04-07T07:29:00.674Z,95036.00
2023-04-07T07:30:00.720Z,95042.00
2023-04-07T07:31:00.829Z,95038.00
2023-04-07T07:32:00.755Z,95038.00
2023-04-07T07:33:00.809Z,95036.00
2023-04-07T07:34:00.802Z,95034.00
2023-04-07T07:35:00.829Z,95036.00
2023-04-07T07:36:00.852Z,95032.00
2023-04-07T07:37:00.881Z,95032.00
2023-04-07T07:38:00.895Z,95030.00
2023-04-07T07:39:00.969Z,95030.00
2023-04-07T07:40:00.970Z,95029.00
2023-04-07T07:41:00.983Z,95027.00
2023-04-07T07:42:00.998Z,95025.00
2023-04-07T07:43:01.037Z,95027.00
2023-04-07T07:44:01.073Z,95025.00
2023-04-07T07:45:01.120Z,95025.00
2023-04-07T07:46:01.230Z,95025.00
2023-04-07T07:47:01.139Z,95027.00
2023-04-07T07:48:01.353Z,95025.00
2023-04-07T07:49:01.182Z,95023.00
2023-04-07T07:50:01.212Z,95023.00
2023-04-07T07:51:01.240Z,95021.00
2023-04-07T07:52:01.276Z,95021.00
2023-04-07T07:53:01.300Z,95021.00
2023-04-07T07:54:01.333Z,95019.00
2023-04-07T07:55:01.387Z,95019.00
2023-04-07T07:56:01.384Z,95017.00
2023-04-07T07:57:01.412Z,95017.00
2023-04-07T07:58:01.441Z,95013.00
2023-04-07T07:59:01.471Z,95013.00
2023-04-07T08:00:01.492Z,95013.00
2023-04-07T08:01:01.513Z,95013.00
2023-04-07T08:02:01.600Z,95011.00
2023-04-07T08:03:01.626Z,95009.00
2023-04-07T08:04:01.672Z,95009.00
2023-04-07T08:05:01.669Z,95007.00
2023-04-07T08:06:01.631Z,95009.00
2023-04-07T08:07:01.641Z,95005.00
2023-04-07T08:08:01.664Z,95007.00
2023-04-07T08:09:01.712Z,95005.00
2023-04-07T08:10:01.754Z,95005.00
2023-04-07T08:11:01.769Z,95005.00
2023-04-07T08:12:01.758Z,95003.00
2023-04-07T08:13:02.156Z,95001.00
2023-04-07T08:14:02.241Z,95001.00
2023-04-07T08:15:02.213Z,95001.00
2023-04-07T08:16:02.192Z,95001.00
2023-04-07T08:17:02.196Z,95001.00
2023-04-07T08:18:02.199Z,94999.00
2023-04-07T08:19:02.195Z,94999.00
2023-04-07T08:20:02.186Z,94995.00
2023-04-07T08:21:02.184Z,94993.00
2023-04-07T08:22:02.182Z,94993.00
2023-04-07T08:23:02.215Z,94993.00
2023-04-07T08:24:02.214Z,94991.00
2023-04-07T08:25:02.225Z,94993.00
2023-04-07T08:26:02.187Z,94995.00
2023-04-07T08:27:02.218Z,94995.00
2023-04-07T08:28:02.182Z,94993.00
2023-04-07T08:29:02.179Z,94995.00
2023-04-07T08:30:02.189Z,94993.00
2023-04-07T08:31:02.240Z,94993.00
2023-04-07T08:32:02.261Z,94993.00
2023-04-07T08:33:02.313Z,94993.00
2023-04-07T08:34:02.270Z,94991.00
2023-04-07T08:35:02.298Z,94989.00
2023-04-07T08:36:02.520Z,94991.00
2023-04-07T08:37:02.328Z,94989.00
2023-04-07T08:38:02.350Z,94987.00
2023-04-07T08:39:02.398Z,94987.00
2023-04-07T08:40:02.416Z,94989.00
2023-04-07T08:41:02.432Z,94989.00
2023-04-07T08:42:02.450Z,94989.00
2023-04-07T08:43:02.502Z,94989.00
2023-04-07T08:44:02.503Z,94987.00
2023-04-07T08:45:02.517Z,94987.00
2023-04-07T08:46:02.551Z,94987.00
2023-04-07T08:47:02.674Z,94983.00
2023-04-07T08:48:02.684Z,94982.00
2023-04-07T08:49:02.627Z,94982.00
2023-04-07T08:50:02.649Z,94980.00
2023-04-07T08:51:02.689Z,94980.00
2023-04-07T08:52:05.095Z,94976.00
2023-04-07T08:53:02.699Z,94976.00
2023-04-07T08:54:02.708Z,94974.00
2023-04-07T08:55:02.682Z,94968.00
2023-04-07T08:56:02.685Z,94968.00
2023-04-07T08:57:02.671Z,94966.00
2023-04-07T08:58:02.671Z,94964.00
2023-04-07T08:59:02.688Z,94966.00
2023-04-07T09:00:02.648Z,94964.00
2023-04-07T09:01:02.743Z,94964.00
2023-04-07T09:02:02.670Z,94964.00
2023-04-07T09:03:02.777Z,94964.00
2023-04-07T09:04:02.791Z,94962.00
2023-04-07T09:05:02.613Z,94958.00
2023-04-07T09:06:02.668Z,94962.00
2023-04-07T09:07:02.621Z,94960.00
2023-04-07T09:08:02.595Z,94960.00
2023-04-07T09:09:02.584Z,94958.00
2023-04-07T09:10:02.584Z,94952.00
2023-04-07T09:11:02.566Z,94954.00
2023-04-07T09:12:02.561Z,94950.00
2023-04-07T09:13:02.550Z,94948.00
2023-04-07T09:14:02.544Z,94944.00
2023-04-07T09:15:02.572Z,94944.00
2023-04-07T09:16:02.669Z,94940.00
2023-04-07T09:17:02.545Z,94940.00
2023-04-07T09:18:02.549Z,94938.00
2023-04-07T09:19:02.555Z,94938.00
2023-04-07T09:20:02.590Z,94935.00
2023-04-07T09:21:02.580Z,94933.00
2023-04-07T09:22:02.594Z,94933.00
2023-04-07T09:23:02.614Z,94931.00
2023-04-07T09:24:02.635Z,94927.00
2023-04-07T09:25:02.663Z,94927.00
2023-04-07T09:26:02.735Z,94927.00
2023-04-07T09:27:02.697Z,94923.00
2023-04-07T09:28:03.072Z,94921.00
2023-04-07T09:29:03.118Z,94919.00
2023-04-07T09:30:03.114Z,94919.00
2023-04-07T09:31:03.152Z,94919.00
2023-04-07T09:32:03.152Z,94917.00
2023-04-07T09:33:03.176Z,94917.00
2023-04-07T09:34:03.176Z,94915.00
2023-04-07T09:35:03.122Z,94915.00
2023-04-07T09:36:03.191Z,94915.00
2023-04-07T09:37:03.112Z,94915.00
2023-04-07T09:38:03.120Z,94911.00
2023-04-07T09:39:03.121Z,94909.00
2023-04-07T09:40:03.165Z,94907.00
2023-04-07T09:41:03.134Z,94907.00
2023-04-07T09:42:03.113Z,94903.00
2023-04-07T09:43:03.134Z,94905.00
2023-04-07T09:44:03.113Z,94901.00
2023-04-07T09:45:03.111Z,94901.00
2023-04-07T09:46:03.152Z,94901.00
2023-04-07T09:47:03.139Z,94899.00
2023-04-07T09:48:03.123Z,94897.00
2023-04-07T09:49:03.137Z,94889.00
2023-04-07T09:50:03.184Z,94887.00
2023-04-07T09:51:03.184Z,94887.00
2023-04-07T09:52:03.201Z,94885.00
2023-04-07T09:53:03.244Z,94883.00
2023-04-07T09:54:03.243Z,94885.00
2023-04-07T09:55:03.264Z,94883.00
2023-04-07T09:56:03.308Z,94882.00
2023-04-07T09:57:03.292Z,94880.00
2023-04-07T09:58:03.309Z,94878.00
2023-04-07T09:59:03.335Z,94874.00
2023-04-07T10:00:03.345Z,94878.00
2023-04-07T10:01:03.417Z,94874.00
2023-04-07T10:02:03.594Z,94872.00
2023-04-07T10:03:06.232Z,94870.00
2023-04-07T10:04:03.433Z,94866.00
2023-04-07T10:05:03.384Z,94868.00
2023-04-07T10:06:03.380Z,94864.00
2023-04-07T10:07:03.364Z,94862.00
2023-04-07T10:08:03.357Z,94860.00
2023-04-07T10:09:03.358Z,94858.00
2023-04-07T10:10:03.347Z,94856.00
2023-04-07T10:11:03.351Z,94856.00
2023-04-07T10:12:03.337Z,94850.00
2023-04-07T10:13:03.324Z,94854.00
2023-04-07T10:14:03.316Z,94852.00
2023-04-07T10:15:03.318Z,94850.00
2023-04-07T10:16:03.304Z,94848.00
2023-04-07T10:17:03.400Z,94846.00
2023-04-07T10:18:03.319Z,94846.00
2023-04-07T10:19:03.320Z,94846.00
2023-04-07T10:20:03.281Z,94844.00
2023-04-07T10:21:03.281Z,94844.00
2023-04-07T10:22:03.262Z,94840.00
2023-04-07T10:23:03.258Z,94838.00
2023-04-07T10:24:03.254Z,94838.00
2023-04-07T10:25:03.251Z,94836.00
2023-04-07T10:26:03.234Z,94835.00
2023-04-07T10:27:03.233Z,94835.00
2023-04-07T10:28:03.239Z,94831.00
2023-04-07T10:29:03.209Z,94831.00
2023-04-07T10:30:03.214Z,94827.00
2023-04-07T10:31:04.091Z,94829.00
2023-04-07T10:32:03.192Z,94827.00
2023-04-07T10:33:03.244Z,94825.00
2023-04-07T10:34:03.177Z,94823.00
2023-04-07T10:35:03.197Z,94823.00
2023-04-07T10:36:03.253Z,94821.00
2023-04-07T10:37:03.152Z,94821.00
2023-04-07T10:38:03.201Z,94819.00
2023-04-07T10:39:03.143Z,94819.00
2023-04-07T10:40:03.153Z,94817.00
2023-04-07T10:41:03.137Z,94815.00
2023-04-07T10:42:03.171Z,94813.00
2023-04-07T10:43:03.144Z,94815.00
2023-04-07T10:44:03.119Z,94813.00
2023-04-07T10:45:03.126Z,94811.00
2023-04-07T10:46:03.189Z,94813.00
2023-04-07T10:47:03.155Z,94815.00
2023-04-07T10:48:03.178Z,94807.00
2023-04-07T10:49:03.131Z,94805.00
2023-04-07T10:50:03.157Z,94807.00
2023-04-07T10:51:03.158Z,94809.00
2023-04-07T10:52:03.140Z,94801.00
2023-04-07T10:53:03.127Z,94799.00
2023-04-07T10:54:04.038Z,94799.00
2023-04-07T10:55:03.166Z,94799.00
2023-04-07T10:56:03.136Z,94799.00
2023-04-07T10:57:03.143Z,94795.00
2023-04-07T10:58:03.159Z,94791.00
2023-04-07T10:59:03.128Z,94789.00
2023-04-07T11:00:03.151Z,94789.00
2023-04-07T11:01:03.169Z,94788.00
2023-04-07T11:02:03.649Z,94786.00
2023-04-07T11:03:03.300Z,94784.00
2023-04-07T11:04:03.238Z,94786.00
2023-04-07T11:05:03.140Z,94788.00
2023-04-07T11:06:03.134Z,94786.00
2023-04-07T11:07:03.152Z,94782.00
2023-04-07T11:08:03.121Z,94782.00
2023-04-07T11:09:03.136Z,94782.00
2023-04-07T11:10:03.159Z,94776.00
2023-04-07T11:11:03.187Z,94778.00
2023-04-07T11:12:03.212Z,94776.00
2023-04-07T11:13:03.229Z,94776.00
2023-04-07T11:14:03.279Z,94776.00
2023-04-07T11:15:03.277Z,94776.00
2023-04-07T11:16:03.311Z,94774.00
2023-04-07T11:17:03.347Z,94774.00
2023-04-07T11:18:03.389Z,94770.00
2023-04-07T11:19:03.368Z,94770.00
2023-04-07T11:20:03.387Z,94768.00
2023-04-07T11:21:03.421Z,94768.00
2023-04-07T11:22:03.439Z,94770.00
2023-04-07T11:23:03.479Z,94768.00
2023-04-07T11:24:03.479Z,94766.00
2023-04-07T11:25:03.511Z,94764.00
2023-04-07T11:26:03.539Z,94762.00
2023-04-07T11:27:03.566Z,94760.00
2023-04-07T11:28:03.629Z,94762.00
2023-04-07T11:29:03.626Z,94760.00
2023-04-07T11:30:03.643Z,94758.00
2023-04-07T11:31:03.688Z,94760.00
2023-04-07T11:32:03.694Z,94760.00
2023-04-07T11:33:03.741Z,94760.00
2023-04-07T11:34:03.742Z,94756.00
2023-04-07T11:35:03.768Z,94760.00
2023-04-07T11:36:03.889Z,94758.00
2023-04-07T11:37:03.824Z,94758.00
2023-04-07T11:38:03.836Z,94756.00
2023-04-07T11:39:03.919Z,94756.00
2023-04-07T11:40:03.899Z,94758.00
2023-04-07T11:41:03.921Z,94758.00
2023-04-07T11:42:03.964Z,94762.00
2023-04-07T11:43:03.983Z,94758.00
2023-04-07T11:44:04.032Z,94760.00
2023-04-07T11:45:05.028Z,94760.00